Terminal Aerodrome Forecast
Issued by NWS Binghamton, NY

Home | Current Version | Previous Version | Text Only | Print | Product List | Glossary On
Versions: 1 2 3 4 5 6 7 8 9 10 11 12 13 14 15
000
FTUS41 KBGM 271700
TAFAVP
TAF
KAVP 271739Z 2718/2818 26005KT P6SM BKN040
      TEMPO 2722/2801 5SM SHRA BR OVC025
     FM280100 01003KT P6SM SCT035 SCT080
     FM281300 32008KT P6SM BKN040=

USA.gov is the U.S. government's official web portal to all federal, state and local government web resources and services.